< Cyclone 201404 2014 Season Cyclone 201408 >
Cyclone 201407 (Dylan)
General InformationTrack Information on Google MapsDetailed Wind InformationList of All Images || ResourceGoogle EarthGE AnimationAtom FeedGeoJSON
Detalied Best Track (Time Zone = UTC)
Year Month Day Hour Lat. Long. Pressure (hPa) Wind (kt) Class Image Chart
2014 1 24 06 -12.9 160.0 1003 25 2 Image --
2014 1 24 12 -12.8 159.4 1002 25 2 Image --
2014 1 24 18 -12.9 159.0 1002 25 2 Image --
2014 1 25 00 -12.9 159.0 1002 25 2 Image --
2014 1 25 06 -12.9 159.0 1000 25 2 Image --
2014 1 25 12 -12.4 158.5 1002 25 2 Image --
2014 1 25 18 -11.3 157.9 1001 25 2 Image --
2014 1 26 00 -10.4 156.4 1000 25 2 Image --
2014 1 26 03 -10.9 155.7 1000 25 2 Image --
2014 1 26 06 -11.4 155.3 1000 25 2 Image --
2014 1 26 09 -12.0 154.9 1000 25 2 Image --
2014 1 26 18 -12.4 155.5 999.75 20 2 Image --
2014 1 27 00 -13.6 154.7 999.5 20 2 Image --
2014 1 27 01 -14.0 154.6 999.25 20 2 Image --
2014 1 27 06 -14.2 155.7 999 25 2 Image --
2014 1 27 12 -14.9 155.6 998.75 25 2 Image --
2014 1 27 18 -15.2 155.3 998.5 25 2 Image --
2014 1 28 00 -15.2 154.2 998.25 25 2 Image --
2014 1 28 03 -14.7 152.5 998 20 2 Image --
2014 1 28 06 -15.3 152.6 997 20 2 Image --
2014 1 28 09 -14.8 151.7 996 20 2 Image --
2014 1 28 12 -15.1 151.8 1002 20 2 Image --
2014 1 28 15 -15.0 151.1 995 25 2 Image --
2014 1 28 18 -15.3 151.4 999 20 2 Image --
2014 1 28 21 -15.6 151.1 996 25 2 Image --
2014 1 29 00 -16.0 151.3 1000 20 2 Image --
2014 1 29 03 -16.1 150.8 993 25 2 Image --
2014 1 29 06 -16.5 150.8 998 20 2 Image --
2014 1 29 09 -16.6 150.4 992 30 2 Image --
2014 1 29 12 -16.7 150.1 997 25 2 Image --
2014 1 29 15 -16.9 149.7 992 30 2 Image --
2014 1 29 18 -17.3 148.9 998 25 2 Image --
2014 1 29 21 -17.4 148.7 990 30 2 Image --
2014 1 30 00 -17.4 148.6 986 30 2 Image --
2014 1 30 03 -17.7 148.5 987 35 3 Image --
2014 1 30 06 -18.0 148.3 984 45 3 Image --
2014 1 30 09 -18.2 148.4 974 60 4 Image --
2014 1 30 12 -18.8 148.6 976 55 4 Image --
2014 1 30 15 -19.3 148.7 975 55 4 Image --
2014 1 30 18 -20.1 148.5 982 50 4 Image --
2014 1 30 21 -20.6 148.0 990 30 2 Image --
2014 1 31 00 -21.2 147.9 990 20 2 Image --
2014 1 31 03 -21.8 147.4 990 0 0 Image --
2014 1 31 04 -22.0 147.2 990 0 0 Image --
2014 1 31 05 -22.1 147.0 990 0 0 Image --
2014 1 31 06 -22.3 146.8 990 0 0 Image --
2014 1 31 07 -22.4 146.7 990 0 0 Image --
2014 1 31 08 -22.5 146.7 990 0 0 Image --
2014 1 31 09 -22.6 146.6 990 0 0 Image --
2014 1 31 10 -22.6 146.5 990 0 0 Image --
2014 1 31 11 -22.7 146.4 990 0 0 Image --
2014 1 31 12 -22.7 146.3 990 0 0 Image --
2014 1 31 13 -22.8 146.2 990 0 0 Image --
< Cyclone 201404 2014 Season Cyclone 201408 >

Help